sensor_id;sensor_type;location;lat;lon;timestamp;P1;durP1;ratioP1;P2;durP2;ratioP2
44440;SDS011;30146;52.268;20.944;2022-12-07T00:00:44;26.30;;;16.00;;
44440;SDS011;30146;52.268;20.944;2022-12-07T00:03:15;25.70;;;15.70;;
44440;SDS011;30146;52.268;20.944;2022-12-07T00:05:46;27.00;;;17.50;;
44440;SDS011;30146;52.268;20.944;2022-12-07T00:08:18;29.60;;;18.00;;
44440;SDS011;30146;52.268;20.944;2022-12-07T00:10:49;27.90;;;17.40;;
44440;SDS011;30146;52.268;20.944;2022-12-07T00:13:20;31.20;;;18.00;;
44440;SDS011;30146;52.268;20.944;2022-12-07T00:15:51;32.70;;;18.70;;
44440;SDS011;30146;52.268;20.944;2022-12-07T00:18:22;30.20;;;18.70;;
44440;SDS011;30146;52.268;20.944;2022-12-07T00:20:53;33.60;;;19.20;;
44440;SDS011;30146;52.268;20.944;2022-12-07T00:23:30;31.10;;;18.70;;
44440;SDS011;30146;52.268;20.944;2022-12-07T00:26:05;33.20;;;19.40;;
44440;SDS011;30146;52.268;20.944;2022-12-07T00:28:38;34.90;;;19.80;;
44440;SDS011;30146;52.268;20.944;2022-12-07T00:31:10;38.30;;;20.00;;
44440;SDS011;30146;52.268;20.944;2022-12-07T00:33:43;33.80;;;18.50;;
44440;SDS011;30146;52.268;20.944;2022-12-07T00:36:15;30.90;;;18.90;;
44440;SDS011;30146;52.268;20.944;2022-12-07T00:38:54;40.70;;;21.90;;
44440;SDS011;30146;52.268;20.944;2022-12-07T00:41:27;34.10;;;19.60;;
44440;SDS011;30146;52.268;20.944;2022-12-07T00:43:58;36.30;;;20.60;;
44440;SDS011;30146;52.268;20.944;2022-12-07T00:46:29;36.70;;;20.70;;
44440;SDS011;30146;52.268;20.944;2022-12-07T00:49:01;35.80;;;19.70;;
44440;SDS011;30146;52.268;20.944;2022-12-07T00:51:32;35.60;;;21.00;;
44440;SDS011;30146;52.268;20.944;2022-12-07T00:54:03;39.10;;;20.50;;
44440;SDS011;30146;52.268;20.944;2022-12-07T00:56:34;48.30;;;23.30;;
44440;SDS011;30146;52.268;20.944;2022-12-07T00:59:05;40.60;;;23.50;;
44440;SDS011;30146;52.268;20.944;2022-12-07T01:01:36;42.80;;;25.00;;
44440;SDS011;30146;52.268;20.944;2022-12-07T01:04:07;43.50;;;24.60;;
44440;SDS011;30146;52.268;20.944;2022-12-07T01:06:39;42.80;;;24.00;;
44440;SDS011;30146;52.268;20.944;2022-12-07T01:09:09;45.20;;;23.80;;
44440;SDS011;30146;52.268;20.944;2022-12-07T01:11:40;43.60;;;24.30;;
44440;SDS011;30146;52.268;20.944;2022-12-07T01:14:11;39.30;;;23.20;;
44440;SDS011;30146;52.268;20.944;2022-12-07T01:16:42;39.90;;;23.90;;
44440;SDS011;30146;52.268;20.944;2022-12-07T01:19:13;45.70;;;25.80;;
44440;SDS011;30146;52.268;20.944;2022-12-07T01:21:44;49.00;;;26.40;;
44440;SDS011;30146;52.268;20.944;2022-12-07T01:24:15;44.20;;;24.90;;
44440;SDS011;30146;52.268;20.944;2022-12-07T01:26:48;41.90;;;24.90;;
44440;SDS011;30146;52.268;20.944;2022-12-07T01:29:19;45.60;;;24.20;;
44440;SDS011;30146;52.268;20.944;2022-12-07T01:31:50;41.60;;;23.80;;
44440;SDS011;30146;52.268;20.944;2022-12-07T01:34:21;45.90;;;24.70;;
44440;SDS011;30146;52.268;20.944;2022-12-07T01:36:52;41.40;;;24.60;;
44440;SDS011;30146;52.268;20.944;2022-12-07T01:39:23;40.50;;;23.80;;
44440;SDS011;30146;52.268;20.944;2022-12-07T01:41:54;42.20;;;24.40;;
44440;SDS011;30146;52.268;20.944;2022-12-07T01:44:26;39.70;;;23.70;;
44440;SDS011;30146;52.268;20.944;2022-12-07T01:47:00;39.90;;;22.80;;
44440;SDS011;30146;52.268;20.944;2022-12-07T01:49:33;45.10;;;23.10;;
44440;SDS011;30146;52.268;20.944;2022-12-07T01:52:09;35.00;;;21.80;;
44440;SDS011;30146;52.268;20.944;2022-12-07T01:54:51;38.60;;;21.50;;
44440;SDS011;30146;52.268;20.944;2022-12-07T01:57:24;37.90;;;22.10;;
44440;SDS011;30146;52.268;20.944;2022-12-07T01:59:56;39.60;;;22.60;;
44440;SDS011;30146;52.268;20.944;2022-12-07T02:02:41;34.00;;;19.80;;
44440;SDS011;30146;52.268;20.944;2022-12-07T02:05:16;35.30;;;20.10;;
44440;SDS011;30146;52.268;20.944;2022-12-07T02:07:49;37.90;;;20.50;;
44440;SDS011;30146;52.268;20.944;2022-12-07T02:10:23;34.60;;;20.00;;
44440;SDS011;30146;52.268;20.944;2022-12-07T02:12:57;37.60;;;21.30;;
44440;SDS011;30146;52.268;20.944;2022-12-07T02:15:32;30.70;;;17.40;;
44440;SDS011;30146;52.268;20.944;2022-12-07T02:18:12;31.70;;;17.90;;
44440;SDS011;30146;52.268;20.944;2022-12-07T02:20:51;28.70;;;17.00;;
44440;SDS011;30146;52.268;20.944;2022-12-07T02:23:34;27.10;;;15.00;;
44440;SDS011;30146;52.268;20.944;2022-12-07T02:29:28;24.50;;;16.00;;
44440;SDS011;30146;52.268;20.944;2022-12-07T02:32:05;27.30;;;16.40;;
44440;SDS011;30146;52.268;20.944;2022-12-07T02:34:42;29.10;;;17.10;;
44440;SDS011;30146;52.268;20.944;2022-12-07T02:37:20;26.30;;;16.70;;
44440;SDS011;30146;52.268;20.944;2022-12-07T02:39:57;23.80;;;14.00;;
44440;SDS011;30146;52.268;20.944;2022-12-07T02:42:35;21.90;;;14.30;;
44440;SDS011;30146;52.268;20.944;2022-12-07T02:45:09;21.10;;;13.20;;
44440;SDS011;30146;52.268;20.944;2022-12-07T02:47:42;21.50;;;12.00;;
44440;SDS011;30146;52.268;20.944;2022-12-07T02:50:15;19.40;;;13.10;;
44440;SDS011;30146;52.268;20.944;2022-12-07T02:52:48;19.00;;;10.30;;
44440;SDS011;30146;52.268;20.944;2022-12-07T02:55:21;17.40;;;10.60;;
44440;SDS011;30146;52.268;20.944;2022-12-07T02:58:05;14.60;;;10.30;;
44440;SDS011;30146;52.268;20.944;2022-12-07T03:00:49;15.70;;;10.30;;
44440;SDS011;30146;52.268;20.944;2022-12-07T03:03:30;16.90;;;9.40;;
44440;SDS011;30146;52.268;20.944;2022-12-07T03:06:06;12.10;;;9.20;;
44440;SDS011;30146;52.268;20.944;2022-12-07T03:08:47;13.90;;;8.80;;
44440;SDS011;30146;52.268;20.944;2022-12-07T03:11:25;15.20;;;9.80;;
44440;SDS011;30146;52.268;20.944;2022-12-07T03:14:06;13.70;;;9.10;;
44440;SDS011;30146;52.268;20.944;2022-12-07T03:16:45;13.60;;;8.90;;
44440;SDS011;30146;52.268;20.944;2022-12-07T03:19:21;12.90;;;9.00;;
44440;SDS011;30146;52.268;20.944;2022-12-07T03:21:56;15.40;;;10.20;;
44440;SDS011;30146;52.268;20.944;2022-12-07T03:24:33;14.90;;;9.80;;
44440;SDS011;30146;52.268;20.944;2022-12-07T03:27:25;17.60;;;9.30;;
44440;SDS011;30146;52.268;20.944;2022-12-07T03:30:00;14.10;;;8.90;;
44440;SDS011;30146;52.268;20.944;2022-12-07T03:32:34;14.20;;;9.00;;
44440;SDS011;30146;52.268;20.944;2022-12-07T03:35:11;15.50;;;9.60;;
44440;SDS011;30146;52.268;20.944;2022-12-07T03:37:47;12.40;;;8.70;;
44440;SDS011;30146;52.268;20.944;2022-12-07T03:40:22;14.00;;;8.30;;
44440;SDS011;30146;52.268;20.944;2022-12-07T03:42:57;14.00;;;9.50;;
44440;SDS011;30146;52.268;20.944;2022-12-07T03:45:31;16.40;;;10.00;;
44440;SDS011;30146;52.268;20.944;2022-12-07T03:48:07;14.80;;;9.80;;
44440;SDS011;30146;52.268;20.944;2022-12-07T03:50:50;13.80;;;10.80;;
44440;SDS011;30146;52.268;20.944;2022-12-07T03:53:29;14.60;;;10.00;;
44440;SDS011;30146;52.268;20.944;2022-12-07T03:56:05;14.50;;;9.40;;
44440;SDS011;30146;52.268;20.944;2022-12-07T03:58:38;14.40;;;8.30;;
44440;SDS011;30146;52.268;20.944;2022-12-07T04:01:10;14.60;;;9.40;;
44440;SDS011;30146;52.268;20.944;2022-12-07T04:03:42;9.20;;;6.80;;
44440;SDS011;30146;52.268;20.944;2022-12-07T04:06:13;12.00;;;7.60;;
44440;SDS011;30146;52.268;20.944;2022-12-07T04:08:44;11.40;;;8.50;;
44440;SDS011;30146;52.268;20.944;2022-12-07T04:11:15;11.40;;;8.10;;
44440;SDS011;30146;52.268;20.944;2022-12-07T04:13:46;10.40;;;7.60;;
44440;SDS011;30146;52.268;20.944;2022-12-07T04:16:35;12.90;;;7.60;;
44440;SDS011;30146;52.268;20.944;2022-12-07T04:19:11;9.90;;;7.00;;
44440;SDS011;30146;52.268;20.944;2022-12-07T04:21:43;12.60;;;7.40;;
44440;SDS011;30146;52.268;20.944;2022-12-07T04:24:14;8.80;;;7.10;;
44440;SDS011;30146;52.268;20.944;2022-12-07T04:26:45;10.40;;;7.90;;
44440;SDS011;30146;52.268;20.944;2022-12-07T04:29:17;9.90;;;7.40;;
44440;SDS011;30146;52.268;20.944;2022-12-07T04:31:48;12.10;;;7.70;;
44440;SDS011;30146;52.268;20.944;2022-12-07T04:34:20;11.90;;;8.30;;
44440;SDS011;30146;52.268;20.944;2022-12-07T04:36:51;12.70;;;8.00;;
44440;SDS011;30146;52.268;20.944;2022-12-07T04:39:22;9.30;;;6.90;;
44440;SDS011;30146;52.268;20.944;2022-12-07T04:41:55;11.00;;;7.40;;
44440;SDS011;30146;52.268;20.944;2022-12-07T04:44:28;11.20;;;8.00;;
44440;SDS011;30146;52.268;20.944;2022-12-07T04:47:00;11.30;;;7.60;;
44440;SDS011;30146;52.268;20.944;2022-12-07T04:49:31;11.80;;;7.60;;
44440;SDS011;30146;52.268;20.944;2022-12-07T04:52:02;12.50;;;8.50;;
44440;SDS011;30146;52.268;20.944;2022-12-07T04:54:33;10.30;;;8.00;;
44440;SDS011;30146;52.268;20.944;2022-12-07T04:57:04;13.20;;;8.80;;
44440;SDS011;30146;52.268;20.944;2022-12-07T04:59:35;11.60;;;8.40;;
44440;SDS011;30146;52.268;20.944;2022-12-07T05:02:12;11.50;;;7.30;;
44440;SDS011;30146;52.268;20.944;2022-12-07T05:04:43;9.50;;;6.80;;
44440;SDS011;30146;52.268;20.944;2022-12-07T05:07:14;10.10;;;6.70;;
44440;SDS011;30146;52.268;20.944;2022-12-07T05:09:45;9.60;;;7.30;;
44440;SDS011;30146;52.268;20.944;2022-12-07T05:12:16;9.40;;;6.60;;
44440;SDS011;30146;52.268;20.944;2022-12-07T05:14:47;12.00;;;7.40;;
44440;SDS011;30146;52.268;20.944;2022-12-07T05:17:18;8.60;;;6.90;;
44440;SDS011;30146;52.268;20.944;2022-12-07T05:19:49;9.40;;;7.50;;
44440;SDS011;30146;52.268;20.944;2022-12-07T05:22:19;11.00;;;8.10;;
44440;SDS011;30146;52.268;20.944;2022-12-07T05:24:52;9.60;;;7.70;;
44440;SDS011;30146;52.268;20.944;2022-12-07T05:27:23;8.80;;;6.90;;
44440;SDS011;30146;52.268;20.944;2022-12-07T05:29:54;7.90;;;6.80;;
44440;SDS011;30146;52.268;20.944;2022-12-07T05:32:30;9.40;;;6.20;;
44440;SDS011;30146;52.268;20.944;2022-12-07T05:35:05;9.30;;;6.20;;
44440;SDS011;30146;52.268;20.944;2022-12-07T05:37:37;8.40;;;6.50;;
44440;SDS011;30146;52.268;20.944;2022-12-07T05:40:09;10.50;;;7.40;;
44440;SDS011;30146;52.268;20.944;2022-12-07T05:42:41;10.90;;;7.00;;
44440;SDS011;30146;52.268;20.944;2022-12-07T05:45:12;11.00;;;7.80;;
44440;SDS011;30146;52.268;20.944;2022-12-07T05:47:43;8.70;;;6.80;;
44440;SDS011;30146;52.268;20.944;2022-12-07T05:50:17;12.90;;;7.70;;
44440;SDS011;30146;52.268;20.944;2022-12-07T05:52:59;9.70;;;7.00;;
44440;SDS011;30146;52.268;20.944;2022-12-07T05:55:31;11.50;;;6.60;;
44440;SDS011;30146;52.268;20.944;2022-12-07T05:58:01;7.90;;;6.90;;
44440;SDS011;30146;52.268;20.944;2022-12-07T06:00:53;13.60;;;7.70;;
44440;SDS011;30146;52.268;20.944;2022-12-07T06:03:25;9.50;;;6.70;;
44440;SDS011;30146;52.268;20.944;2022-12-07T06:05:56;9.50;;;7.00;;
44440;SDS011;30146;52.268;20.944;2022-12-07T06:08:27;9.50;;;7.10;;
44440;SDS011;30146;52.268;20.944;2022-12-07T06:10:58;8.10;;;6.40;;
44440;SDS011;30146;52.268;20.944;2022-12-07T06:13:42;8.90;;;7.10;;
44440;SDS011;30146;52.268;20.944;2022-12-07T06:16:14;8.70;;;7.30;;
44440;SDS011;30146;52.268;20.944;2022-12-07T06:18:45;8.90;;;6.30;;
44440;SDS011;30146;52.268;20.944;2022-12-07T06:21:16;8.80;;;6.20;;
44440;SDS011;30146;52.268;20.944;2022-12-07T06:23:47;7.40;;;6.20;;
44440;SDS011;30146;52.268;20.944;2022-12-07T06:26:18;8.70;;;5.80;;
44440;SDS011;30146;52.268;20.944;2022-12-07T06:28:49;9.10;;;6.00;;
44440;SDS011;30146;52.268;20.944;2022-12-07T06:31:20;7.90;;;6.10;;
44440;SDS011;30146;52.268;20.944;2022-12-07T06:33:51;7.40;;;6.40;;
44440;SDS011;30146;52.268;20.944;2022-12-07T06:36:26;9.30;;;6.60;;
44440;SDS011;30146;52.268;20.944;2022-12-07T06:38:57;10.50;;;6.80;;
44440;SDS011;30146;52.268;20.944;2022-12-07T06:41:27;8.10;;;6.00;;
44440;SDS011;30146;52.268;20.944;2022-12-07T06:43:59;8.90;;;6.70;;
44440;SDS011;30146;52.268;20.944;2022-12-07T06:46:31;10.70;;;6.80;;
44440;SDS011;30146;52.268;20.944;2022-12-07T06:49:03;10.10;;;6.40;;
44440;SDS011;30146;52.268;20.944;2022-12-07T06:51:35;9.10;;;6.70;;
44440;SDS011;30146;52.268;20.944;2022-12-07T06:54:09;10.40;;;6.90;;
44440;SDS011;30146;52.268;20.944;2022-12-07T06:56:41;11.60;;;6.80;;
44440;SDS011;30146;52.268;20.944;2022-12-07T06:59:12;9.90;;;7.40;;
44440;SDS011;30146;52.268;20.944;2022-12-07T07:01:43;11.20;;;7.50;;
44440;SDS011;30146;52.268;20.944;2022-12-07T07:04:14;10.70;;;7.10;;
44440;SDS011;30146;52.268;20.944;2022-12-07T07:06:45;8.80;;;6.40;;
44440;SDS011;30146;52.268;20.944;2022-12-07T07:09:16;9.10;;;6.80;;
44440;SDS011;30146;52.268;20.944;2022-12-07T07:11:47;8.20;;;6.40;;
44440;SDS011;30146;52.268;20.944;2022-12-07T07:14:18;9.20;;;6.70;;
44440;SDS011;30146;52.268;20.944;2022-12-07T07:16:49;10.10;;;7.40;;
44440;SDS011;30146;52.268;20.944;2022-12-07T07:19:21;9.90;;;6.60;;
44440;SDS011;30146;52.268;20.944;2022-12-07T07:21:52;10.80;;;6.80;;
44440;SDS011;30146;52.268;20.944;2022-12-07T07:24:22;11.10;;;7.10;;
44440;SDS011;30146;52.268;20.944;2022-12-07T07:26:54;10.40;;;8.10;;
44440;SDS011;30146;52.268;20.944;2022-12-07T07:29:25;8.60;;;6.50;;
44440;SDS011;30146;52.268;20.944;2022-12-07T07:31:56;14.00;;;8.20;;
44440;SDS011;30146;52.268;20.944;2022-12-07T07:34:33;13.50;;;6.80;;
44440;SDS011;30146;52.268;20.944;2022-12-07T07:37:04;10.20;;;7.10;;
44440;SDS011;30146;52.268;20.944;2022-12-07T07:39:35;9.50;;;7.20;;
44440;SDS011;30146;52.268;20.944;2022-12-07T07:42:09;12.90;;;7.70;;
44440;SDS011;30146;52.268;20.944;2022-12-07T07:44:46;11.00;;;7.40;;
44440;SDS011;30146;52.268;20.944;2022-12-07T07:47:17;8.60;;;6.70;;
44440;SDS011;30146;52.268;20.944;2022-12-07T07:49:48;8.90;;;5.80;;
44440;SDS011;30146;52.268;20.944;2022-12-07T07:52:19;9.40;;;5.90;;
44440;SDS011;30146;52.268;20.944;2022-12-07T07:54:50;12.00;;;7.10;;
44440;SDS011;30146;52.268;20.944;2022-12-07T07:57:21;9.00;;;7.40;;
44440;SDS011;30146;52.268;20.944;2022-12-07T07:59:52;10.70;;;7.30;;
44440;SDS011;30146;52.268;20.944;2022-12-07T08:02:24;14.70;;;7.90;;
44440;SDS011;30146;52.268;20.944;2022-12-07T08:04:57;10.10;;;7.50;;
44440;SDS011;30146;52.268;20.944;2022-12-07T08:07:28;13.20;;;8.00;;
44440;SDS011;30146;52.268;20.944;2022-12-07T08:09:59;8.80;;;7.30;;
44440;SDS011;30146;52.268;20.944;2022-12-07T08:12:30;12.30;;;7.60;;
44440;SDS011;30146;52.268;20.944;2022-12-07T08:15:05;10.70;;;7.20;;
44440;SDS011;30146;52.268;20.944;2022-12-07T08:17:37;11.60;;;7.70;;
44440;SDS011;30146;52.268;20.944;2022-12-07T08:20:08;11.50;;;7.70;;
44440;SDS011;30146;52.268;20.944;2022-12-07T08:22:39;12.70;;;7.90;;
44440;SDS011;30146;52.268;20.944;2022-12-07T08:25:10;12.60;;;7.80;;
44440;SDS011;30146;52.268;20.944;2022-12-07T08:27:41;13.40;;;7.80;;
44440;SDS011;30146;52.268;20.944;2022-12-07T08:30:13;12.60;;;8.20;;
44440;SDS011;30146;52.268;20.944;2022-12-07T08:32:45;15.00;;;8.80;;
44440;SDS011;30146;52.268;20.944;2022-12-07T08:35:16;13.80;;;9.80;;
44440;SDS011;30146;52.268;20.944;2022-12-07T08:37:47;15.90;;;10.40;;
44440;SDS011;30146;52.268;20.944;2022-12-07T08:40:18;18.40;;;10.20;;
44440;SDS011;30146;52.268;20.944;2022-12-07T08:42:50;13.50;;;9.40;;
44440;SDS011;30146;52.268;20.944;2022-12-07T08:45:21;16.90;;;10.20;;
44440;SDS011;30146;52.268;20.944;2022-12-07T08:47:57;15.70;;;9.50;;
44440;SDS011;30146;52.268;20.944;2022-12-07T08:50:32;15.80;;;10.20;;
44440;SDS011;30146;52.268;20.944;2022-12-07T08:53:05;17.90;;;11.10;;
44440;SDS011;30146;52.268;20.944;2022-12-07T08:55:39;17.60;;;12.30;;
44440;SDS011;30146;52.268;20.944;2022-12-07T08:58:10;19.90;;;10.40;;
44440;SDS011;30146;52.268;20.944;2022-12-07T09:00:41;17.10;;;11.20;;
44440;SDS011;30146;52.268;20.944;2022-12-07T09:03:12;22.20;;;11.80;;
44440;SDS011;30146;52.268;20.944;2022-12-07T09:05:43;17.10;;;11.10;;
44440;SDS011;30146;52.268;20.944;2022-12-07T09:08:14;20.60;;;11.20;;
44440;SDS011;30146;52.268;20.944;2022-12-07T09:10:45;16.10;;;11.80;;
44440;SDS011;30146;52.268;20.944;2022-12-07T09:13:16;18.70;;;12.30;;
44440;SDS011;30146;52.268;20.944;2022-12-07T09:15:47;20.40;;;12.90;;
44440;SDS011;30146;52.268;20.944;2022-12-07T09:18:18;18.20;;;11.50;;
44440;SDS011;30146;52.268;20.944;2022-12-07T09:20:49;20.70;;;13.00;;
44440;SDS011;30146;52.268;20.944;2022-12-07T09:23:20;21.50;;;12.60;;
44440;SDS011;30146;52.268;20.944;2022-12-07T09:25:51;20.70;;;12.20;;
44440;SDS011;30146;52.268;20.944;2022-12-07T09:28:22;20.80;;;13.60;;
44440;SDS011;30146;52.268;20.944;2022-12-07T09:30:53;18.30;;;12.20;;
44440;SDS011;30146;52.268;20.944;2022-12-07T09:33:43;17.20;;;12.10;;
44440;SDS011;30146;52.268;20.944;2022-12-07T09:36:15;20.60;;;12.40;;
44440;SDS011;30146;52.268;20.944;2022-12-07T09:38:46;19.40;;;12.40;;
44440;SDS011;30146;52.268;20.944;2022-12-07T09:41:16;20.50;;;13.00;;
44440;SDS011;30146;52.268;20.944;2022-12-07T09:43:48;17.60;;;12.60;;
44440;SDS011;30146;52.268;20.944;2022-12-07T09:46:20;20.50;;;12.40;;
44440;SDS011;30146;52.268;20.944;2022-12-07T09:48:51;17.50;;;11.50;;
44440;SDS011;30146;52.268;20.944;2022-12-07T09:51:23;19.50;;;12.50;;
44440;SDS011;30146;52.268;20.944;2022-12-07T09:53:54;21.30;;;12.30;;
44440;SDS011;30146;52.268;20.944;2022-12-07T09:56:29;17.70;;;11.70;;
44440;SDS011;30146;52.268;20.944;2022-12-07T09:59:01;21.20;;;12.30;;
44440;SDS011;30146;52.268;20.944;2022-12-07T10:01:33;18.40;;;11.70;;
44440;SDS011;30146;52.268;20.944;2022-12-07T10:04:09;21.20;;;11.40;;
44440;SDS011;30146;52.268;20.944;2022-12-07T10:06:43;22.80;;;11.60;;
44440;SDS011;30146;52.268;20.944;2022-12-07T10:09:16;20.20;;;11.20;;
44440;SDS011;30146;52.268;20.944;2022-12-07T10:12:05;18.60;;;11.90;;
44440;SDS011;30146;52.268;20.944;2022-12-07T10:14:39;19.60;;;11.40;;
44440;SDS011;30146;52.268;20.944;2022-12-07T10:17:47;18.30;;;10.90;;
44440;SDS011;30146;52.268;20.944;2022-12-07T10:20:24;18.90;;;10.90;;
44440;SDS011;30146;52.268;20.944;2022-12-07T10:23:07;21.70;;;11.00;;
44440;SDS011;30146;52.268;20.944;2022-12-07T10:25:54;18.20;;;10.90;;
44440;SDS011;30146;52.268;20.944;2022-12-07T10:28:27;23.30;;;11.70;;
44440;SDS011;30146;52.268;20.944;2022-12-07T10:31:16;23.40;;;12.70;;
44440;SDS011;30146;52.268;20.944;2022-12-07T10:33:52;18.00;;;11.00;;
44440;SDS011;30146;52.268;20.944;2022-12-07T10:36:25;24.20;;;12.00;;
44440;SDS011;30146;52.268;20.944;2022-12-07T10:39:03;23.80;;;13.40;;
44440;SDS011;30146;52.268;20.944;2022-12-07T10:41:53;24.00;;;12.80;;
44440;SDS011;30146;52.268;20.944;2022-12-07T10:44:26;20.90;;;11.70;;
44440;SDS011;30146;52.268;20.944;2022-12-07T10:47:03;18.00;;;11.10;;
44440;SDS011;30146;52.268;20.944;2022-12-07T10:49:53;17.90;;;10.50;;
44440;SDS011;30146;52.268;20.944;2022-12-07T10:52:42;17.20;;;10.30;;
44440;SDS011;30146;52.268;20.944;2022-12-07T10:55:35;18.50;;;11.30;;
44440;SDS011;30146;52.268;20.944;2022-12-07T10:58:26;22.70;;;10.80;;
44440;SDS011;30146;52.268;20.944;2022-12-07T11:01:07;17.90;;;12.30;;
44440;SDS011;30146;52.268;20.944;2022-12-07T11:03:58;19.20;;;11.50;;
44440;SDS011;30146;52.268;20.944;2022-12-07T11:06:39;17.50;;;11.60;;
44440;SDS011;30146;52.268;20.944;2022-12-07T11:09:24;21.80;;;11.50;;
44440;SDS011;30146;52.268;20.944;2022-12-07T11:12:29;17.30;;;10.20;;
44440;SDS011;30146;52.268;20.944;2022-12-07T11:15:12;14.80;;;9.80;;
44440;SDS011;30146;52.268;20.944;2022-12-07T11:17:48;17.90;;;11.00;;
44440;SDS011;30146;52.268;20.944;2022-12-07T11:23:21;15.80;;;11.10;;
44440;SDS011;30146;52.268;20.944;2022-12-07T11:26:02;16.70;;;10.50;;
44440;SDS011;30146;52.268;20.944;2022-12-07T11:28:43;16.30;;;10.80;;
44440;SDS011;30146;52.268;20.944;2022-12-07T11:31:36;16.00;;;11.60;;
44440;SDS011;30146;52.268;20.944;2022-12-07T11:34:18;14.00;;;11.30;;
44440;SDS011;30146;52.268;20.944;2022-12-07T11:36:57;17.10;;;11.50;;
44440;SDS011;30146;52.268;20.944;2022-12-07T11:39:33;14.90;;;11.40;;
44440;SDS011;30146;52.268;20.944;2022-12-07T11:42:09;14.20;;;10.50;;
44440;SDS011;30146;52.268;20.944;2022-12-07T11:44:47;15.30;;;11.00;;
44440;SDS011;30146;52.268;20.944;2022-12-07T11:47:25;16.40;;;11.00;;
44440;SDS011;30146;52.268;20.944;2022-12-07T11:50:07;14.20;;;10.90;;
44440;SDS011;30146;52.268;20.944;2022-12-07T11:52:51;18.70;;;12.40;;
44440;SDS011;30146;52.268;20.944;2022-12-07T11:58:00;15.70;;;10.70;;
44440;SDS011;30146;52.268;20.944;2022-12-07T12:00:40;16.30;;;11.30;;
44440;SDS011;30146;52.268;20.944;2022-12-07T12:03:12;17.80;;;12.60;;
44440;SDS011;30146;52.268;20.944;2022-12-07T12:05:49;16.30;;;11.90;;
44440;SDS011;30146;52.268;20.944;2022-12-07T12:08:21;16.00;;;11.50;;
44440;SDS011;30146;52.268;20.944;2022-12-07T12:11:19;16.60;;;10.40;;
44440;SDS011;30146;52.268;20.944;2022-12-07T12:17:25;16.20;;;11.20;;
44440;SDS011;30146;52.268;20.944;2022-12-07T12:20:22;16.20;;;12.00;;
44440;SDS011;30146;52.268;20.944;2022-12-07T12:22:58;14.50;;;10.90;;
44440;SDS011;30146;52.268;20.944;2022-12-07T12:25:37;14.40;;;11.60;;
44440;SDS011;30146;52.268;20.944;2022-12-07T12:28:20;18.00;;;12.80;;
44440;SDS011;30146;52.268;20.944;2022-12-07T12:31:06;15.90;;;10.60;;
44440;SDS011;30146;52.268;20.944;2022-12-07T12:33:43;16.80;;;11.50;;
44440;SDS011;30146;52.268;20.944;2022-12-07T12:36:20;16.00;;;10.70;;
44440;SDS011;30146;52.268;20.944;2022-12-07T12:39:11;15.30;;;11.00;;
44440;SDS011;30146;52.268;20.944;2022-12-07T12:41:57;16.20;;;11.90;;
44440;SDS011;30146;52.268;20.944;2022-12-07T12:47:41;15.60;;;10.80;;
44440;SDS011;30146;52.268;20.944;2022-12-07T12:50:22;14.90;;;11.40;;
44440;SDS011;30146;52.268;20.944;2022-12-07T12:53:00;17.60;;;11.70;;
44440;SDS011;30146;52.268;20.944;2022-12-07T12:58:44;14.70;;;11.10;;
44440;SDS011;30146;52.268;20.944;2022-12-07T13:10:22;14.20;;;9.90;;
44440;SDS011;30146;52.268;20.944;2022-12-07T13:13:01;11.60;;;9.10;;
44440;SDS011;30146;52.268;20.944;2022-12-07T13:15:35;11.40;;;9.10;;
44440;SDS011;30146;52.268;20.944;2022-12-07T13:23:56;12.40;;;9.10;;
44440;SDS011;30146;52.268;20.944;2022-12-07T13:26:35;13.20;;;8.90;;
44440;SDS011;30146;52.268;20.944;2022-12-07T13:29:11;12.90;;;9.20;;
44440;SDS011;30146;52.268;20.944;2022-12-07T13:31:43;12.00;;;8.40;;
44440;SDS011;30146;52.268;20.944;2022-12-07T13:34:29;18.10;;;12.70;;
44440;SDS011;30146;52.268;20.944;2022-12-07T13:37:09;14.30;;;9.90;;
44440;SDS011;30146;52.268;20.944;2022-12-07T13:39:46;12.90;;;8.80;;
44440;SDS011;30146;52.268;20.944;2022-12-07T13:42:22;11.00;;;8.50;;
44440;SDS011;30146;52.268;20.944;2022-12-07T13:44:56;12.50;;;9.80;;
44440;SDS011;30146;52.268;20.944;2022-12-07T13:47:31;12.10;;;9.60;;
44440;SDS011;30146;52.268;20.944;2022-12-07T13:50:20;11.90;;;9.80;;
44440;SDS011;30146;52.268;20.944;2022-12-07T13:52:56;12.10;;;9.30;;
44440;SDS011;30146;52.268;20.944;2022-12-07T13:55:28;14.10;;;9.90;;
44440;SDS011;30146;52.268;20.944;2022-12-07T13:58:00;17.70;;;9.90;;
44440;SDS011;30146;52.268;20.944;2022-12-07T14:00:31;15.00;;;9.60;;
44440;SDS011;30146;52.268;20.944;2022-12-07T14:03:03;14.80;;;10.90;;
44440;SDS011;30146;52.268;20.944;2022-12-07T14:06:05;12.00;;;9.70;;
44440;SDS011;30146;52.268;20.944;2022-12-07T14:08:43;18.10;;;11.80;;
44440;SDS011;30146;52.268;20.944;2022-12-07T14:11:16;16.20;;;10.70;;
44440;SDS011;30146;52.268;20.944;2022-12-07T14:13:54;16.20;;;11.30;;
44440;SDS011;30146;52.268;20.944;2022-12-07T14:16:29;16.00;;;11.20;;
44440;SDS011;30146;52.268;20.944;2022-12-07T14:19:03;16.60;;;11.70;;
44440;SDS011;30146;52.268;20.944;2022-12-07T14:22:07;15.90;;;12.50;;
44440;SDS011;30146;52.268;20.944;2022-12-07T14:24:47;17.30;;;11.90;;
44440;SDS011;30146;52.268;20.944;2022-12-07T14:27:20;19.00;;;13.30;;
44440;SDS011;30146;52.268;20.944;2022-12-07T14:29:58;18.40;;;12.70;;
44440;SDS011;30146;52.268;20.944;2022-12-07T14:32:30;17.10;;;13.00;;
44440;SDS011;30146;52.268;20.944;2022-12-07T14:35:02;15.60;;;12.60;;
44440;SDS011;30146;52.268;20.944;2022-12-07T14:37:39;15.50;;;11.70;;
44440;SDS011;30146;52.268;20.944;2022-12-07T14:42:45;13.70;;;11.50;;
44440;SDS011;30146;52.268;20.944;2022-12-07T14:45:20;17.40;;;13.10;;
44440;SDS011;30146;52.268;20.944;2022-12-07T14:47:52;17.00;;;10.90;;
44440;SDS011;30146;52.268;20.944;2022-12-07T14:50:43;16.10;;;10.80;;
44440;SDS011;30146;52.268;20.944;2022-12-07T14:53:39;16.80;;;11.80;;
44440;SDS011;30146;52.268;20.944;2022-12-07T14:56:20;17.50;;;13.00;;
44440;SDS011;30146;52.268;20.944;2022-12-07T14:58:51;18.90;;;13.00;;
44440;SDS011;30146;52.268;20.944;2022-12-07T15:01:22;17.70;;;11.90;;
44440;SDS011;30146;52.268;20.944;2022-12-07T15:03:53;16.50;;;12.60;;
44440;SDS011;30146;52.268;20.944;2022-12-07T15:06:24;18.70;;;13.70;;
44440;SDS011;30146;52.268;20.944;2022-12-07T15:08:55;19.50;;;12.70;;
44440;SDS011;30146;52.268;20.944;2022-12-07T15:11:27;17.00;;;12.90;;
44440;SDS011;30146;52.268;20.944;2022-12-07T15:13:58;17.40;;;11.70;;
44440;SDS011;30146;52.268;20.944;2022-12-07T15:16:40;17.30;;;13.00;;
44440;SDS011;30146;52.268;20.944;2022-12-07T15:19:32;19.60;;;13.80;;
44440;SDS011;30146;52.268;20.944;2022-12-07T15:22:03;19.70;;;14.30;;
44440;SDS011;30146;52.268;20.944;2022-12-07T15:24:34;19.00;;;13.30;;
44440;SDS011;30146;52.268;20.944;2022-12-07T15:27:05;19.60;;;14.10;;
44440;SDS011;30146;52.268;20.944;2022-12-07T15:29:37;23.60;;;16.70;;
44440;SDS011;30146;52.268;20.944;2022-12-07T15:32:08;23.80;;;15.00;;
44440;SDS011;30146;52.268;20.944;2022-12-07T15:34:39;23.60;;;16.20;;
44440;SDS011;30146;52.268;20.944;2022-12-07T15:37:10;25.40;;;15.90;;